Latest Weather Observations for Fort Denison

IDN60801

Issued at 7:52 pm EDT Wednesday 25 November 2020 (issued every 10 minutes, with the page automatically refreshed every 10 minutes)

About weather observations | Map of weather stations | Latest weather observations for NSW | Other Formats
Station Details ID: 066022 Name: FORT DENISON Lat: -33.86 Lon: 151.23 Height: 5.0 m
Data from the previous 72 hours. | See also: Recent months for locations in New South Wales
Date/Time
EDT
Temp
°C
App
Temp
°C
Dew
Point
°C
Rel
Hum
%
Delta-T
°C
Wind Press
QNH
hPa
Press
MSL
hPa
Rain since
9am
mm
Dir  Spd
km/h
Gust
km/h
Spd
kts
Gust
kts
25/07:30pm - - - - - NE 19 28 10 15 - - -
25/07:00pm - - - - - NE 20 33 11 18 - - -
25/06:30pm - - - - - ENE 22 32 12 17 - - -
25/06:00pm - - - - - NE 22 32 12 17 - - -
25/05:30pm - - - - - ENE 22 30 12 16 - - -
25/05:00pm - - - - - E 26 32 14 17 - - -
25/04:30pm - - - - - ENE 24 32 13 17 - - -
25/04:00pm - - - - - E 26 32 14 17 - - -
25/03:30pm - - - - - E 24 28 13 15 - - -
25/03:00pm - - - - - E 24 28 13 15 - - -
25/02:30pm - - - - - E 20 24 11 13 - - -
25/02:00pm - - - - - E 17 22 9 12 - - -
25/01:30pm - - - - - E 19 22 10 12 - - -
25/01:00pm - - - - - E 19 22 10 12 - - -
25/12:30pm - - - - - E 17 22 9 12 - - -
25/12:00pm - - - - - E 17 20 9 11 - - -
25/11:30am - - - - - E 19 22 10 12 - - -
25/11:00am - - - - - E 17 20 9 11 - - -
25/10:30am - - - - - E 17 19 9 10 - - -
25/10:00am - - - - - E 15 19 8 10 - - -
25/09:30am - - - - - E 15 17 8 9 - - -
25/09:00am - - - - - E 9 17 5 9 - - -
25/08:30am - - - - - W 6 9 3 5 - - -
25/08:00am - - - - - WNW 9 9 5 5 - - -
25/07:30am - - - - - WNW 9 9 5 5 - - -
25/07:00am - - - - - W 6 7 3 4 - - -
25/06:30am - - - - - WNW 11 13 6 7 - - -
25/06:00am - - - - - WSW 6 6 3 3 - - -
25/05:30am - - - - - W 7 15 4 8 - - -
25/05:00am - - - - - WSW 4 6 2 3 - - -
25/04:30am - - - - - CALM 0 2 0 1 - - -
25/04:00am - - - - - S 6 6 3 3 - - -
25/03:30am - - - - - SSE 11 13 6 7 - - -
25/03:00am - - - - - SSE 7 11 4 6 - - -
25/02:30am - - - - - SE 7 9 4 5 - - -
25/02:00am - - - - - SE 6 7 3 4 - - -
25/01:30am - - - - - ESE 4 7 2 4 - - -
25/01:00am - - - - - SSE 11 15 6 8 - - -
25/12:30am - - - - - SSE 9 13 5 7 - - -
25/12:00am - - - - - SSE 9 11 5 6 - - -
 
Date/Time
EDT
Temp
°C
App
Temp
°C
Dew
Point
°C
Rel
Hum
%
Delta-T
°C
Wind Press
QNH
hPa
Press
MSL
hPa
Rain since
9am
mm
Dir  Spd
km/h
Gust
km/h
Spd
kts
Gust
kts
24/11:30pm - - - - - SSE 9 15 5 8 - - -
24/11:00pm - - - - - SSE 9 13 5 7 - - -
24/10:30pm - - - - - SE 9 17 5 9 - - -
24/10:00pm - - - - - SSE 13 19 7 10 - - -
24/09:30pm - - - - - SSE 15 20 8 11 - - -
24/09:00pm - - - - - SSE 11 17 6 9 - - -
24/08:30pm - - - - - SSE 13 17 7 9 - - -
24/08:00pm - - - - - SE 15 24 8 13 - - -
24/07:30pm - - - - - SE 17 24 9 13 - - -
24/07:00pm - - - - - SE 19 26 10 14 - - -
24/06:30pm - - - - - SE 19 30 10 16 - - -
24/06:00pm - - - - - SE 19 24 10 13 - - -
24/05:30pm - - - - - SE 22 32 12 17 - - -
24/05:00pm - - - - - SSE 24 37 13 20 - - -
24/04:30pm - - - - - SE 20 32 11 17 - - -
24/04:00pm - - - - - SSE 20 32 11 17 - - -
24/03:30pm - - - - - SSE 30 39 16 21 - - -
24/03:00pm - - - - - SE 26 35 14 19 - - -
24/02:30pm - - - - - SSE 22 32 12 17 - - -
24/02:00pm - - - - - SSE 20 35 11 19 - - -
24/01:30pm - - - - - S 22 37 12 20 - - -
24/01:00pm - - - - - S 24 35 13 19 - - -
24/12:30pm - - - - - SSE 30 41 16 22 - - -
24/12:00pm - - - - - S 19 37 10 20 - - -
24/11:30am - - - - - S 22 35 12 19 - - -
24/11:00am - - - - - SSW 24 37 13 20 - - -
24/10:30am - - - - - SSW 28 43 15 23 - - -
24/10:04am - - - - - S 30 48 16 26 - - -
24/10:00am - - - - - S 28 44 15 24 - - -
24/09:42am - - - - - SSW 28 46 15 25 - - -
24/09:30am - - - - - SSW 24 41 13 22 - - -
24/09:00am - - - - - S 24 37 13 20 - - -
24/08:30am - - - - - S 20 37 11 20 - - -
24/08:00am - - - - - SSW 20 32 11 17 - - -
24/07:30am - - - - - S 15 28 8 15 - - -
24/07:00am - - - - - S 15 26 8 14 - - -
24/06:30am - - - - - SSW 19 26 10 14 - - -
24/06:00am - - - - - SSW 15 24 8 13 - - -
24/05:30am - - - - - SSW 15 20 8 11 - - -
24/05:00am - - - - - SSW 13 19 7 10 - - -
24/04:30am - - - - - S 13 26 7 14 - - -
24/04:00am - - - - - S 17 26 9 14 - - -
24/03:30am - - - - - S 20 30 11 16 - - -
24/03:00am - - - - - S 17 26 9 14 - - -
24/02:30am - - - - - SSW 17 26 9 14 - - -
24/02:00am - - - - - SSW 17 26 9 14 - - -
24/01:30am - - - - - S 15 24 8 13 - - -
24/01:00am - - - - - S 17 32 9 17 - - -
24/12:30am - - - - - SSW 17 28 9 15 - - -
24/12:00am - - - - - S 17 24 9 13 - - -
 
Date/Time
EDT
Temp
°C
App
Temp
°C
Dew
Point
°C
Rel
Hum
%
Delta-T
°C
Wind Press
QNH
hPa
Press
MSL
hPa
Rain since
9am
mm
Dir  Spd
km/h
Gust
km/h
Spd
kts
Gust
kts
23/11:30pm - - - - - S 19 30 10 16 - - -
23/11:00pm - - - - - S 19 33 10 18 - - -
23/10:30pm - - - - - S 22 35 12 19 - - -
23/10:00pm - - - - - S 26 43 14 23 - - -
23/09:30pm - - - - - S 22 35 12 19 - - -
23/09:00pm - - - - - S 19 32 10 17 - - -
23/08:30pm - - - - - SSW 20 32 11 17 - - -
23/08:00pm - - - - - S 17 28 9 15 - - -
23/07:30pm - - - - - S 20 35 11 19 - - -
23/07:00pm - - - - - W 13 17 7 9 - - -
23/06:30pm - - - - - NW 17 22 9 12 - - -
23/06:00pm - - - - - NW 20 24 11 13 - - -
23/05:30pm - - - - - W 13 30 7 16 - - -
23/05:00pm - - - - - WNW 19 22 10 12 - - -
23/04:30pm - - - - - WNW 17 20 9 11 - - -
23/04:00pm - - - - - NW 20 30 11 16 - - -
23/03:30pm - - - - - NW 15 28 8 15 - - -
23/03:00pm - - - - - NW 19 28 10 15 - - -
23/02:30pm - - - - - N 28 35 15 19 - - -
23/02:00pm - - - - - NW 28 37 15 20 - - -
23/01:30pm - - - - - WNW 24 43 13 23 - - -
23/01:00pm - - - - - NW 26 37 14 20 - - -
23/12:30pm - - - - - NW 17 26 9 14 - - -
23/12:00pm - - - - - NW 20 33 11 18 - - -
23/11:30am - - - - - WNW 9 11 5 6 - - -
23/11:00am - - - - - WNW 9 13 5 7 - - -
23/10:30am - - - - - W 9 13 5 7 - - -
23/10:00am - - - - - WNW 11 13 6 7 - - -
23/09:30am - - - - - N 6 11 3 6 - - -
23/09:00am - - - - - W 7 11 4 6 - - -
23/08:30am - - - - - NW 4 6 2 3 - - -
23/08:00am - - - - - NNW 6 11 3 6 - - -
23/07:30am - - - - - WNW 7 11 4 6 - - -
23/07:00am - - - - - WNW 6 11 3 6 - - -
23/06:30am - - - - - W 11 15 6 8 - - -
23/06:00am - - - - - WNW 13 19 7 10 - - -
23/05:30am - - - - - SW 20 33 11 18 - - -
23/05:00am - - - - - SW 17 24 9 13 - - -
23/04:30am - - - - - WNW 20 30 11 16 - - -
23/04:00am - - - - - W 28 57 15 31 - - -
23/03:57am - - - - - W 22 35 12 19 - - -
23/03:30am - - - - - WNW 7 9 4 5 - - -
23/03:00am - - - - - NNW 2 2 1 1 - - -
23/02:30am - - - - - ENE 2 4 1 2 - - -
23/02:00am - - - - - E 2 4 1 2 - - -
23/01:30am - - - - - NNW 4 9 2 5 - - -
23/01:00am - - - - - ESE 4 6 2 3 - - -
23/12:30am - - - - - SE 4 7 2 4 - - -
23/12:00am - - - - - SSE 4 4 2 2 - - -
 
Date/Time
EDT
Temp
°C
App
Temp
°C
Dew
Point
°C
Rel
Hum
%
Delta-T
°C
Wind Press
QNH
hPa
Press
MSL
hPa
Rain since
9am
mm
Dir  Spd
km/h
Gust
km/h
Spd
kts
Gust
kts
22/11:30pm - - - - - ESE 6 6 3 3 - - -
22/11:00pm - - - - - ESE 6 6 3 3 - - -
22/10:30pm - - - - - ENE 6 9 3 5 - - -
22/10:00pm - - - - - ESE 9 11 5 6 - - -
22/09:30pm - - - - - E 6 11 3 6 - - -
22/09:00pm - - - - - SE 4 9 2 5 - - -
22/08:30pm - - - - - NE 4 11 2 6 - - -
22/08:00pm - - - - - E 9 15 5 8 - - -

Other formats

Comma delimited format used in spreadsheet applications
http://www.bom.gov.au/fwo/IDN60801/IDN60801.94769.axf

JavaScript Object Notation format (JSON) in row-major order
http://www.bom.gov.au/fwo/IDN60801/IDN60801.94769.json

Data quality

Most of these data are generated automatically and are frequently updated. Quality checks on data are not normally performed. It is possible for incorrect values to appear. Refer to information at About Latest Weather Observations and please check the disclaimer before using these data.